sensor_id;sensor_type;location;lat;lon;timestamp;temperature;humidity
54960;DHT22;40860;51.710;8.736;2023-06-26T00:02:36;23.40;69.30
54960;DHT22;40860;51.710;8.736;2023-06-26T00:06:40;23.30;69.30
54960;DHT22;40860;51.710;8.736;2023-06-26T00:10:43;23.40;69.30
54960;DHT22;40860;51.710;8.736;2023-06-26T00:14:46;23.30;69.40
54960;DHT22;40860;51.710;8.736;2023-06-26T00:18:49;23.30;69.70
54960;DHT22;40860;51.710;8.736;2023-06-26T00:22:53;23.30;69.40
54960;DHT22;40860;51.710;8.736;2023-06-26T00:26:57;23.30;69.30
54960;DHT22;40860;51.710;8.736;2023-06-26T00:31:00;23.30;69.40
54960;DHT22;40860;51.710;8.736;2023-06-26T00:35:04;23.20;69.80
54960;DHT22;40860;51.710;8.736;2023-06-26T00:39:08;23.20;69.70
54960;DHT22;40860;51.710;8.736;2023-06-26T00:43:11;23.20;69.60
54960;DHT22;40860;51.710;8.736;2023-06-26T00:47:16;23.20;69.70
54960;DHT22;40860;51.710;8.736;2023-06-26T00:51:20;23.20;69.80
54960;DHT22;40860;51.710;8.736;2023-06-26T00:55:26;23.10;69.90
54960;DHT22;40860;51.710;8.736;2023-06-26T00:59:29;23.10;69.60
54960;DHT22;40860;51.710;8.736;2023-06-26T01:03:32;23.20;69.50
54960;DHT22;40860;51.710;8.736;2023-06-26T01:07:36;23.30;69.40
54960;DHT22;40860;51.710;8.736;2023-06-26T01:11:40;23.20;69.30
54960;DHT22;40860;51.710;8.736;2023-06-26T01:15:43;23.20;69.20
54960;DHT22;40860;51.710;8.736;2023-06-26T01:19:47;23.20;69.40
54960;DHT22;40860;51.710;8.736;2023-06-26T01:24:00;23.20;69.30
54960;DHT22;40860;51.710;8.736;2023-06-26T01:28:08;23.20;69.30
54960;DHT22;40860;51.710;8.736;2023-06-26T01:32:11;23.10;69.10
54960;DHT22;40860;51.710;8.736;2023-06-26T01:36:14;23.10;69.10
54960;DHT22;40860;51.710;8.736;2023-06-26T01:40:17;23.10;69.10
54960;DHT22;40860;51.710;8.736;2023-06-26T01:44:29;23.10;69.00
54960;DHT22;40860;51.710;8.736;2023-06-26T01:48:49;23.10;68.70
54960;DHT22;40860;51.710;8.736;2023-06-26T01:53:01;23.20;68.40
54960;DHT22;40860;51.710;8.736;2023-06-26T01:57:05;23.10;68.00
54960;DHT22;40860;51.710;8.736;2023-06-26T02:01:11;23.10;68.10
54960;DHT22;40860;51.710;8.736;2023-06-26T02:05:14;23.10;68.20
54960;DHT22;40860;51.710;8.736;2023-06-26T02:09:17;23.10;68.00
54960;DHT22;40860;51.710;8.736;2023-06-26T02:13:21;23.00;68.40
54960;DHT22;40860;51.710;8.736;2023-06-26T02:17:28;23.00;68.40
54960;DHT22;40860;51.710;8.736;2023-06-26T02:21:31;22.90;68.40
54960;DHT22;40860;51.710;8.736;2023-06-26T02:25:34;22.90;68.50
54960;DHT22;40860;51.710;8.736;2023-06-26T02:29:38;22.80;68.30
54960;DHT22;40860;51.710;8.736;2023-06-26T02:33:43;22.80;68.10
54960;DHT22;40860;51.710;8.736;2023-06-26T02:37:47;22.80;67.40
54960;DHT22;40860;51.710;8.736;2023-06-26T02:41:50;22.80;67.40
54960;DHT22;40860;51.710;8.736;2023-06-26T02:45:53;22.80;67.40
54960;DHT22;40860;51.710;8.736;2023-06-26T02:49:57;22.80;67.40
54960;DHT22;40860;51.710;8.736;2023-06-26T02:54:01;22.80;67.10
54960;DHT22;40860;51.710;8.736;2023-06-26T02:58:03;22.80;66.90
54960;DHT22;40860;51.710;8.736;2023-06-26T03:02:07;22.80;66.40
54960;DHT22;40860;51.710;8.736;2023-06-26T03:06:16;22.80;66.60
54960;DHT22;40860;51.710;8.736;2023-06-26T03:10:20;22.80;66.50
54960;DHT22;40860;51.710;8.736;2023-06-26T03:14:23;22.70;66.60
54960;DHT22;40860;51.710;8.736;2023-06-26T03:18:26;22.70;66.70
54960;DHT22;40860;51.710;8.736;2023-06-26T03:22:30;22.60;66.40
54960;DHT22;40860;51.710;8.736;2023-06-26T03:26:33;22.70;66.50
54960;DHT22;40860;51.710;8.736;2023-06-26T03:30:36;22.60;66.50
54960;DHT22;40860;51.710;8.736;2023-06-26T03:34:41;22.60;66.30
54960;DHT22;40860;51.710;8.736;2023-06-26T03:38:45;22.60;66.20
54960;DHT22;40860;51.710;8.736;2023-06-26T03:42:48;22.60;66.20
54960;DHT22;40860;51.710;8.736;2023-06-26T03:46:52;22.50;66.00
54960;DHT22;40860;51.710;8.736;2023-06-26T03:50:54;22.60;66.10
54960;DHT22;40860;51.710;8.736;2023-06-26T03:59:02;22.50;65.20
54960;DHT22;40860;51.710;8.736;2023-06-26T04:03:06;22.50;66.10
54960;DHT22;40860;51.710;8.736;2023-06-26T04:07:09;22.50;65.60
54960;DHT22;40860;51.710;8.736;2023-06-26T04:11:14;22.60;65.20
54960;DHT22;40860;51.710;8.736;2023-06-26T04:15:17;22.60;65.00
54960;DHT22;40860;51.710;8.736;2023-06-26T04:19:20;22.70;65.20
54960;DHT22;40860;51.710;8.736;2023-06-26T04:23:22;22.70;65.20
54960;DHT22;40860;51.710;8.736;2023-06-26T04:27:26;22.70;65.10
54960;DHT22;40860;51.710;8.736;2023-06-26T04:31:30;22.80;64.50
54960;DHT22;40860;51.710;8.736;2023-06-26T04:35:33;22.90;65.40
54960;DHT22;40860;51.710;8.736;2023-06-26T04:39:38;22.90;64.80
54960;DHT22;40860;51.710;8.736;2023-06-26T04:43:42;23.00;64.40
54960;DHT22;40860;51.710;8.736;2023-06-26T04:47:45;22.90;65.80
54960;DHT22;40860;51.710;8.736;2023-06-26T04:51:48;22.90;66.50
54960;DHT22;40860;51.710;8.736;2023-06-26T04:55:52;22.90;65.60
54960;DHT22;40860;51.710;8.736;2023-06-26T04:59:57;22.90;65.60
54960;DHT22;40860;51.710;8.736;2023-06-26T05:03:59;22.90;64.40
54960;DHT22;40860;51.710;8.736;2023-06-26T05:08:13;22.90;63.50
54960;DHT22;40860;51.710;8.736;2023-06-26T05:12:16;23.10;62.70
54960;DHT22;40860;51.710;8.736;2023-06-26T05:16:21;23.20;62.10
54960;DHT22;40860;51.710;8.736;2023-06-26T05:20:23;23.30;61.20
54960;DHT22;40860;51.710;8.736;2023-06-26T05:24:27;23.40;60.50
54960;DHT22;40860;51.710;8.736;2023-06-26T05:28:30;23.60;60.60
54960;DHT22;40860;51.710;8.736;2023-06-26T05:32:37;23.60;61.00
54960;DHT22;40860;51.710;8.736;2023-06-26T05:36:41;23.60;61.10
54960;DHT22;40860;51.710;8.736;2023-06-26T05:40:45;23.60;62.80
54960;DHT22;40860;51.710;8.736;2023-06-26T05:44:48;23.60;62.20
54960;DHT22;40860;51.710;8.736;2023-06-26T05:48:52;23.60;62.60
54960;DHT22;40860;51.710;8.736;2023-06-26T05:52:55;23.70;62.90
54960;DHT22;40860;51.710;8.736;2023-06-26T05:56:59;23.80;63.80
54960;DHT22;40860;51.710;8.736;2023-06-26T06:01:02;23.80;63.30
54960;DHT22;40860;51.710;8.736;2023-06-26T06:05:07;24.00;63.20
54960;DHT22;40860;51.710;8.736;2023-06-26T06:09:10;24.10;63.80
54960;DHT22;40860;51.710;8.736;2023-06-26T06:13:13;24.20;64.00
54960;DHT22;40860;51.710;8.736;2023-06-26T06:17:16;24.30;63.50
54960;DHT22;40860;51.710;8.736;2023-06-26T06:21:20;24.50;62.20
54960;DHT22;40860;51.710;8.736;2023-06-26T06:25:23;24.60;62.00
54960;DHT22;40860;51.710;8.736;2023-06-26T06:29:26;24.60;62.30
54960;DHT22;40860;51.710;8.736;2023-06-26T06:33:28;24.60;62.60
54960;DHT22;40860;51.710;8.736;2023-06-26T06:37:33;24.50;62.50
54960;DHT22;40860;51.710;8.736;2023-06-26T06:41:35;24.50;62.60
54960;DHT22;40860;51.710;8.736;2023-06-26T06:45:40;24.50;63.30
54960;DHT22;40860;51.710;8.736;2023-06-26T06:49:43;24.70;63.50
54960;DHT22;40860;51.710;8.736;2023-06-26T06:53:47;24.60;63.40
54960;DHT22;40860;51.710;8.736;2023-06-26T06:57:50;24.40;64.80
54960;DHT22;40860;51.710;8.736;2023-06-26T07:01:53;24.40;65.40
54960;DHT22;40860;51.710;8.736;2023-06-26T07:05:56;24.30;66.20
54960;DHT22;40860;51.710;8.736;2023-06-26T07:10:02;24.20;65.60
54960;DHT22;40860;51.710;8.736;2023-06-26T07:14:05;24.30;66.20
54960;DHT22;40860;51.710;8.736;2023-06-26T07:18:08;24.30;66.40
54960;DHT22;40860;51.710;8.736;2023-06-26T07:22:11;24.40;66.30
54960;DHT22;40860;51.710;8.736;2023-06-26T07:26:15;24.70;65.40
54960;DHT22;40860;51.710;8.736;2023-06-26T07:30:22;26.40;63.60
54960;DHT22;40860;51.710;8.736;2023-06-26T07:34:25;28.20;58.90
54960;DHT22;40860;51.710;8.736;2023-06-26T07:38:28;29.00;56.80
54960;DHT22;40860;51.710;8.736;2023-06-26T07:42:32;29.30;56.30
54960;DHT22;40860;51.710;8.736;2023-06-26T07:46:35;29.50;62.50
54960;DHT22;40860;51.710;8.736;2023-06-26T07:50:38;30.00;55.20
54960;DHT22;40860;51.710;8.736;2023-06-26T07:54:42;30.40;54.20
54960;DHT22;40860;51.710;8.736;2023-06-26T07:58:46;30.80;53.70
54960;DHT22;40860;51.710;8.736;2023-06-26T08:02:49;29.80;54.00
54960;DHT22;40860;51.710;8.736;2023-06-26T08:06:53;28.40;56.20
54960;DHT22;40860;51.710;8.736;2023-06-26T08:10:56;28.00;57.30
54960;DHT22;40860;51.710;8.736;2023-06-26T08:15:00;27.70;58.40
54960;DHT22;40860;51.710;8.736;2023-06-26T08:19:04;26.70;59.10
54960;DHT22;40860;51.710;8.736;2023-06-26T08:23:07;26.00;61.60
54960;DHT22;40860;51.710;8.736;2023-06-26T08:27:10;25.60;63.90
54960;DHT22;40860;51.710;8.736;2023-06-26T08:31:14;25.20;65.70
54960;DHT22;40860;51.710;8.736;2023-06-26T08:35:17;25.00;66.60
54960;DHT22;40860;51.710;8.736;2023-06-26T08:39:20;24.70;67.90
54960;DHT22;40860;51.710;8.736;2023-06-26T08:43:23;24.20;69.90
54960;DHT22;40860;51.710;8.736;2023-06-26T08:47:28;24.00;71.00
54960;DHT22;40860;51.710;8.736;2023-06-26T08:51:33;24.00;72.10
54960;DHT22;40860;51.710;8.736;2023-06-26T08:55:41;24.50;72.10
54960;DHT22;40860;51.710;8.736;2023-06-26T08:59:46;25.00;71.80
54960;DHT22;40860;51.710;8.736;2023-06-26T09:03:51;25.30;70.50
54960;DHT22;40860;51.710;8.736;2023-06-26T09:07:54;25.50;69.70
54960;DHT22;40860;51.710;8.736;2023-06-26T09:12:01;25.50;68.80
54960;DHT22;40860;51.710;8.736;2023-06-26T09:16:06;25.40;69.70
54960;DHT22;40860;51.710;8.736;2023-06-26T09:20:11;25.20;69.60
54960;DHT22;40860;51.710;8.736;2023-06-26T09:24:16;25.00;70.30
54960;DHT22;40860;51.710;8.736;2023-06-26T09:28:19;24.60;71.30
54960;DHT22;40860;51.710;8.736;2023-06-26T09:32:24;24.40;72.90
54960;DHT22;40860;51.710;8.736;2023-06-26T09:36:30;24.50;72.80
54960;DHT22;40860;51.710;8.736;2023-06-26T09:40:37;24.40;73.40
54960;DHT22;40860;51.710;8.736;2023-06-26T09:44:43;24.60;74.00
54960;DHT22;40860;51.710;8.736;2023-06-26T09:48:46;24.90;73.40
54960;DHT22;40860;51.710;8.736;2023-06-26T09:52:52;25.10;73.60
54960;DHT22;40860;51.710;8.736;2023-06-26T09:56:55;25.30;72.60
54960;DHT22;40860;51.710;8.736;2023-06-26T10:00:58;25.40;72.20
54960;DHT22;40860;51.710;8.736;2023-06-26T10:05:01;25.60;71.00
54960;DHT22;40860;51.710;8.736;2023-06-26T10:09:07;25.50;70.90
54960;DHT22;40860;51.710;8.736;2023-06-26T10:13:14;25.60;71.40
54960;DHT22;40860;51.710;8.736;2023-06-26T10:17:20;25.50;71.80
54960;DHT22;40860;51.710;8.736;2023-06-26T10:21:24;25.20;71.60
54960;DHT22;40860;51.710;8.736;2023-06-26T10:25:30;25.20;72.20
54960;DHT22;40860;51.710;8.736;2023-06-26T10:29:35;25.60;71.00
54960;DHT22;40860;51.710;8.736;2023-06-26T10:33:39;25.60;69.70
54960;DHT22;40860;51.710;8.736;2023-06-26T10:37:43;25.40;70.20
54960;DHT22;40860;51.710;8.736;2023-06-26T10:41:48;25.10;70.40
54960;DHT22;40860;51.710;8.736;2023-06-26T10:45:57;25.00;71.10
54960;DHT22;40860;51.710;8.736;2023-06-26T10:50:20;25.20;71.10
54960;DHT22;40860;51.710;8.736;2023-06-26T10:54:28;25.30;70.20
54960;DHT22;40860;51.710;8.736;2023-06-26T10:58:34;25.50;69.30
54960;DHT22;40860;51.710;8.736;2023-06-26T11:02:58;25.70;69.10
54960;DHT22;40860;51.710;8.736;2023-06-26T11:07:16;25.40;69.30
54960;DHT22;40860;51.710;8.736;2023-06-26T11:11:20;25.50;69.00
54960;DHT22;40860;51.710;8.736;2023-06-26T11:15:26;25.50;69.20
54960;DHT22;40860;51.710;8.736;2023-06-26T11:19:29;25.50;68.90
54960;DHT22;40860;51.710;8.736;2023-06-26T11:23:35;25.50;65.40
54960;DHT22;40860;51.710;8.736;2023-06-26T11:27:38;25.70;65.70
54960;DHT22;40860;51.710;8.736;2023-06-26T11:31:42;25.90;65.20
54960;DHT22;40860;51.710;8.736;2023-06-26T11:35:45;26.10;65.40
54960;DHT22;40860;51.710;8.736;2023-06-26T11:39:49;26.00;64.80
54960;DHT22;40860;51.710;8.736;2023-06-26T11:43:53;25.70;61.90
54960;DHT22;40860;51.710;8.736;2023-06-26T11:48:00;25.50;60.80
54960;DHT22;40860;51.710;8.736;2023-06-26T11:52:04;25.20;61.00
54960;DHT22;40860;51.710;8.736;2023-06-26T11:56:08;25.00;62.70
54960;DHT22;40860;51.710;8.736;2023-06-26T12:00:12;25.30;63.30
54960;DHT22;40860;51.710;8.736;2023-06-26T12:04:18;26.00;63.00
54960;DHT22;40860;51.710;8.736;2023-06-26T12:08:22;26.40;62.40
54960;DHT22;40860;51.710;8.736;2023-06-26T12:12:26;26.30;60.00
54960;DHT22;40860;51.710;8.736;2023-06-26T12:16:30;26.30;58.30
54960;DHT22;40860;51.710;8.736;2023-06-26T12:20:40;26.70;58.70
54960;DHT22;40860;51.710;8.736;2023-06-26T12:24:44;26.90;57.00
54960;DHT22;40860;51.710;8.736;2023-06-26T12:28:47;26.90;55.00
54960;DHT22;40860;51.710;8.736;2023-06-26T12:32:50;26.90;53.60
54960;DHT22;40860;51.710;8.736;2023-06-26T12:37:00;26.90;54.20
54960;DHT22;40860;51.710;8.736;2023-06-26T12:41:03;27.10;53.80
54960;DHT22;40860;51.710;8.736;2023-06-26T12:45:11;27.30;53.10
54960;DHT22;40860;51.710;8.736;2023-06-26T12:49:32;26.90;52.80
54960;DHT22;40860;51.710;8.736;2023-06-26T12:53:37;27.20;52.70
54960;DHT22;40860;51.710;8.736;2023-06-26T12:57:43;27.50;51.60
54960;DHT22;40860;51.710;8.736;2023-06-26T13:01:46;27.50;50.60
54960;DHT22;40860;51.710;8.736;2023-06-26T13:05:49;27.70;49.60
54960;DHT22;40860;51.710;8.736;2023-06-26T13:09:53;27.60;48.80
54960;DHT22;40860;51.710;8.736;2023-06-26T13:13:57;27.60;49.50
54960;DHT22;40860;51.710;8.736;2023-06-26T13:18:11;27.50;49.60
54960;DHT22;40860;51.710;8.736;2023-06-26T13:22:14;27.10;50.50
54960;DHT22;40860;51.710;8.736;2023-06-26T13:26:19;26.80;50.00
54960;DHT22;40860;51.710;8.736;2023-06-26T13:30:38;26.50;50.60
54960;DHT22;40860;51.710;8.736;2023-06-26T13:34:41;26.30;51.90
54960;DHT22;40860;51.710;8.736;2023-06-26T13:38:44;26.00;53.00
54960;DHT22;40860;51.710;8.736;2023-06-26T13:42:49;25.80;54.20
54960;DHT22;40860;51.710;8.736;2023-06-26T13:46:52;25.90;54.10
54960;DHT22;40860;51.710;8.736;2023-06-26T13:50:55;26.30;54.40
54960;DHT22;40860;51.710;8.736;2023-06-26T13:55:00;26.20;53.00
54960;DHT22;40860;51.710;8.736;2023-06-26T13:59:06;26.10;53.70
54960;DHT22;40860;51.710;8.736;2023-06-26T14:03:09;26.40;54.10
54960;DHT22;40860;51.710;8.736;2023-06-26T14:07:12;26.50;53.70
54960;DHT22;40860;51.710;8.736;2023-06-26T14:11:17;26.10;53.20
54960;DHT22;40860;51.710;8.736;2023-06-26T14:15:21;25.80;54.20
54960;DHT22;40860;51.710;8.736;2023-06-26T14:19:24;25.40;55.10
54960;DHT22;40860;51.710;8.736;2023-06-26T14:23:28;25.40;55.10
54960;DHT22;40860;51.710;8.736;2023-06-26T14:27:30;25.60;54.40
54960;DHT22;40860;51.710;8.736;2023-06-26T14:31:34;25.50;53.80
54960;DHT22;40860;51.710;8.736;2023-06-26T14:35:37;25.60;53.20
54960;DHT22;40860;51.710;8.736;2023-06-26T14:39:40;25.90;52.60
54960;DHT22;40860;51.710;8.736;2023-06-26T14:43:44;26.30;51.80
54960;DHT22;40860;51.710;8.736;2023-06-26T14:47:49;26.40;49.60
54960;DHT22;40860;51.710;8.736;2023-06-26T14:51:51;26.60;48.80
54960;DHT22;40860;51.710;8.736;2023-06-26T14:55:55;26.90;48.30
54960;DHT22;40860;51.710;8.736;2023-06-26T14:59:58;27.00;47.10
54960;DHT22;40860;51.710;8.736;2023-06-26T15:04:02;27.00;46.90
54960;DHT22;40860;51.710;8.736;2023-06-26T15:08:05;27.30;46.00
54960;DHT22;40860;51.710;8.736;2023-06-26T15:12:08;27.30;46.60
54960;DHT22;40860;51.710;8.736;2023-06-26T15:16:11;27.20;46.20
54960;DHT22;40860;51.710;8.736;2023-06-26T15:20:16;26.60;46.00
54960;DHT22;40860;51.710;8.736;2023-06-26T15:24:19;26.20;46.20
54960;DHT22;40860;51.710;8.736;2023-06-26T15:28:22;26.00;46.80
54960;DHT22;40860;51.710;8.736;2023-06-26T15:32:25;26.20;46.10
54960;DHT22;40860;51.710;8.736;2023-06-26T15:36:29;26.30;45.60
54960;DHT22;40860;51.710;8.736;2023-06-26T15:40:32;26.30;45.10
54960;DHT22;40860;51.710;8.736;2023-06-26T15:44:35;26.30;44.20
54960;DHT22;40860;51.710;8.736;2023-06-26T15:48:38;26.00;44.90
54960;DHT22;40860;51.710;8.736;2023-06-26T15:52:45;25.80;45.80
54960;DHT22;40860;51.710;8.736;2023-06-26T15:56:48;25.90;46.90
54960;DHT22;40860;51.710;8.736;2023-06-26T16:00:51;26.10;46.80
54960;DHT22;40860;51.710;8.736;2023-06-26T16:04:54;25.80;47.20
54960;DHT22;40860;51.710;8.736;2023-06-26T16:08:59;25.80;46.70
54960;DHT22;40860;51.710;8.736;2023-06-26T16:13:02;25.80;47.00
54960;DHT22;40860;51.710;8.736;2023-06-26T16:17:05;25.80;47.10
54960;DHT22;40860;51.710;8.736;2023-06-26T16:21:08;25.70;48.00
54960;DHT22;40860;51.710;8.736;2023-06-26T16:25:12;25.60;47.90
54960;DHT22;40860;51.710;8.736;2023-06-26T16:29:15;25.10;47.40
54960;DHT22;40860;51.710;8.736;2023-06-26T16:33:18;24.80;48.00
54960;DHT22;40860;51.710;8.736;2023-06-26T16:37:20;24.60;47.90
54960;DHT22;40860;51.710;8.736;2023-06-26T16:41:25;24.30;47.90
54960;DHT22;40860;51.710;8.736;2023-06-26T16:45:27;24.10;48.30
54960;DHT22;40860;51.710;8.736;2023-06-26T16:49:30;23.90;49.00
54960;DHT22;40860;51.710;8.736;2023-06-26T16:53:33;23.70;49.00
54960;DHT22;40860;51.710;8.736;2023-06-26T16:57:37;23.60;49.60
54960;DHT22;40860;51.710;8.736;2023-06-26T17:01:40;23.50;49.40
54960;DHT22;40860;51.710;8.736;2023-06-26T17:05:44;23.50;49.70
54960;DHT22;40860;51.710;8.736;2023-06-26T17:09:47;23.40;50.10
54960;DHT22;40860;51.710;8.736;2023-06-26T17:13:51;23.40;50.70
54960;DHT22;40860;51.710;8.736;2023-06-26T17:17:54;23.30;50.90
54960;DHT22;40860;51.710;8.736;2023-06-26T17:21:57;23.30;50.80
54960;DHT22;40860;51.710;8.736;2023-06-26T17:26:00;23.10;51.20
54960;DHT22;40860;51.710;8.736;2023-06-26T17:30:14;22.90;51.40
54960;DHT22;40860;51.710;8.736;2023-06-26T17:34:28;22.90;51.60
54960;DHT22;40860;51.710;8.736;2023-06-26T17:38:34;22.80;51.70
54960;DHT22;40860;51.710;8.736;2023-06-26T17:42:43;22.70;51.60
54960;DHT22;40860;51.710;8.736;2023-06-26T17:46:48;22.60;51.50
54960;DHT22;40860;51.710;8.736;2023-06-26T17:50:54;22.50;51.80
54960;DHT22;40860;51.710;8.736;2023-06-26T17:55:02;22.50;51.90
54960;DHT22;40860;51.710;8.736;2023-06-26T17:59:06;22.30;51.80
54960;DHT22;40860;51.710;8.736;2023-06-26T18:03:18;22.20;52.40
54960;DHT22;40860;51.710;8.736;2023-06-26T18:07:37;22.20;52.90
54960;DHT22;40860;51.710;8.736;2023-06-26T18:12:01;22.20;53.40
54960;DHT22;40860;51.710;8.736;2023-06-26T18:16:09;22.20;53.80
54960;DHT22;40860;51.710;8.736;2023-06-26T18:20:31;22.10;54.20
54960;DHT22;40860;51.710;8.736;2023-06-26T18:24:49;22.00;54.50
54960;DHT22;40860;51.710;8.736;2023-06-26T18:28:54;22.00;55.20
54960;DHT22;40860;51.710;8.736;2023-06-26T18:33:00;21.90;54.60
54960;DHT22;40860;51.710;8.736;2023-06-26T18:37:06;21.90;54.90
54960;DHT22;40860;51.710;8.736;2023-06-26T18:41:11;22.00;55.10
54960;DHT22;40860;51.710;8.736;2023-06-26T18:45:13;22.00;55.00
54960;DHT22;40860;51.710;8.736;2023-06-26T18:49:16;22.10;54.50
54960;DHT22;40860;51.710;8.736;2023-06-26T18:53:21;22.10;54.20
54960;DHT22;40860;51.710;8.736;2023-06-26T18:57:25;22.10;54.30
54960;DHT22;40860;51.710;8.736;2023-06-26T19:01:28;22.00;53.70
54960;DHT22;40860;51.710;8.736;2023-06-26T19:05:31;22.00;53.70
54960;DHT22;40860;51.710;8.736;2023-06-26T19:09:36;21.80;52.30
54960;DHT22;40860;51.710;8.736;2023-06-26T19:13:39;21.70;52.70
54960;DHT22;40860;51.710;8.736;2023-06-26T19:17:42;21.50;52.60
54960;DHT22;40860;51.710;8.736;2023-06-26T19:21:44;21.40;53.10
54960;DHT22;40860;51.710;8.736;2023-06-26T19:25:49;21.30;53.10
54960;DHT22;40860;51.710;8.736;2023-06-26T19:29:53;21.10;53.50
54960;DHT22;40860;51.710;8.736;2023-06-26T19:33:56;21.10;53.60
54960;DHT22;40860;51.710;8.736;2023-06-26T19:37:59;21.00;54.00
54960;DHT22;40860;51.710;8.736;2023-06-26T19:42:08;20.90;54.20
54960;DHT22;40860;51.710;8.736;2023-06-26T19:46:11;20.80;54.40
54960;DHT22;40860;51.710;8.736;2023-06-26T19:50:15;20.70;54.70
54960;DHT22;40860;51.710;8.736;2023-06-26T19:54:19;20.60;55.10
54960;DHT22;40860;51.710;8.736;2023-06-26T19:58:27;20.60;55.60
54960;DHT22;40860;51.710;8.736;2023-06-26T20:02:32;20.50;55.90
54960;DHT22;40860;51.710;8.736;2023-06-26T20:06:36;20.40;56.20
54960;DHT22;40860;51.710;8.736;2023-06-26T20:10:39;20.30;56.70
54960;DHT22;40860;51.710;8.736;2023-06-26T20:14:44;20.20;57.10
54960;DHT22;40860;51.710;8.736;2023-06-26T20:18:47;20.00;58.00
54960;DHT22;40860;51.710;8.736;2023-06-26T20:22:50;19.80;58.50
54960;DHT22;40860;51.710;8.736;2023-06-26T20:26:53;19.60;59.20
54960;DHT22;40860;51.710;8.736;2023-06-26T20:30:57;19.50;59.70
54960;DHT22;40860;51.710;8.736;2023-06-26T20:35:01;19.30;59.80
54960;DHT22;40860;51.710;8.736;2023-06-26T20:39:04;19.30;59.90
54960;DHT22;40860;51.710;8.736;2023-06-26T20:43:08;19.30;61.50
54960;DHT22;40860;51.710;8.736;2023-06-26T20:47:17;19.20;61.10
54960;DHT22;40860;51.710;8.736;2023-06-26T20:51:24;19.10;61.20
54960;DHT22;40860;51.710;8.736;2023-06-26T20:55:30;19.00;61.00
54960;DHT22;40860;51.710;8.736;2023-06-26T20:59:34;18.90;61.80
54960;DHT22;40860;51.710;8.736;2023-06-26T21:03:38;18.80;62.30
54960;DHT22;40860;51.710;8.736;2023-06-26T21:07:42;18.80;62.70
54960;DHT22;40860;51.710;8.736;2023-06-26T21:11:45;18.70;63.70
54960;DHT22;40860;51.710;8.736;2023-06-26T21:15:48;18.60;63.50
54960;DHT22;40860;51.710;8.736;2023-06-26T21:19:52;18.60;63.40
54960;DHT22;40860;51.710;8.736;2023-06-26T21:23:57;18.60;63.90
54960;DHT22;40860;51.710;8.736;2023-06-26T21:28:00;18.50;63.80
54960;DHT22;40860;51.710;8.736;2023-06-26T21:32:07;18.50;64.30
54960;DHT22;40860;51.710;8.736;2023-06-26T21:36:11;18.40;64.70
54960;DHT22;40860;51.710;8.736;2023-06-26T21:40:14;18.40;65.00
54960;DHT22;40860;51.710;8.736;2023-06-26T21:44:18;18.30;65.40
54960;DHT22;40860;51.710;8.736;2023-06-26T21:48:21;18.30;65.90
54960;DHT22;40860;51.710;8.736;2023-06-26T21:52:25;18.20;66.50
54960;DHT22;40860;51.710;8.736;2023-06-26T21:56:28;18.10;67.30
54960;DHT22;40860;51.710;8.736;2023-06-26T22:00:31;18.00;67.70
54960;DHT22;40860;51.710;8.736;2023-06-26T22:04:34;17.90;67.80
54960;DHT22;40860;51.710;8.736;2023-06-26T22:08:38;17.90;68.40
54960;DHT22;40860;51.710;8.736;2023-06-26T22:12:41;17.80;68.90
54960;DHT22;40860;51.710;8.736;2023-06-26T22:16:47;17.60;69.60
54960;DHT22;40860;51.710;8.736;2023-06-26T22:20:50;17.60;70.00
54960;DHT22;40860;51.710;8.736;2023-06-26T22:24:55;17.50;70.80
54960;DHT22;40860;51.710;8.736;2023-06-26T22:28:58;17.50;71.30
54960;DHT22;40860;51.710;8.736;2023-06-26T22:33:01;17.20;72.90
54960;DHT22;40860;51.710;8.736;2023-06-26T22:37:04;17.00;73.90
54960;DHT22;40860;51.710;8.736;2023-06-26T22:41:08;17.00;74.40
54960;DHT22;40860;51.710;8.736;2023-06-26T22:45:11;16.90;75.20
54960;DHT22;40860;51.710;8.736;2023-06-26T22:49:15;16.80;75.10
54960;DHT22;40860;51.710;8.736;2023-06-26T22:53:17;16.90;74.80
54960;DHT22;40860;51.710;8.736;2023-06-26T22:57:22;16.90;74.90
54960;DHT22;40860;51.710;8.736;2023-06-26T23:01:25;16.90;75.10
54960;DHT22;40860;51.710;8.736;2023-06-26T23:05:29;16.80;75.20
54960;DHT22;40860;51.710;8.736;2023-06-26T23:09:31;16.80;75.60
54960;DHT22;40860;51.710;8.736;2023-06-26T23:13:35;16.80;76.30
54960;DHT22;40860;51.710;8.736;2023-06-26T23:17:38;16.60;77.40
54960;DHT22;40860;51.710;8.736;2023-06-26T23:21:42;16.30;78.80
54960;DHT22;40860;51.710;8.736;2023-06-26T23:25:45;16.20;79.90
54960;DHT22;40860;51.710;8.736;2023-06-26T23:29:49;16.20;80.80
54960;DHT22;40860;51.710;8.736;2023-06-26T23:33:55;16.20;80.40
54960;DHT22;40860;51.710;8.736;2023-06-26T23:37:58;16.20;80.30
54960;DHT22;40860;51.710;8.736;2023-06-26T23:42:03;16.10;80.60
54960;DHT22;40860;51.710;8.736;2023-06-26T23:46:07;16.00;81.50
54960;DHT22;40860;51.710;8.736;2023-06-26T23:50:12;15.80;82.20
54960;DHT22;40860;51.710;8.736;2023-06-26T23:54:15;15.80;82.00
54960;DHT22;40860;51.710;8.736;2023-06-26T23:58:18;15.70;82.70
